Terminal Aerodrome Forecast
Issued by NWS

Home | Current Version | Previous Version | Text Only | Print | Product List | Glossary On
Versions: 1 2 3 4 5 6 7 8 9 10 11 12 13 14 15 16 17 18
000
FTUS44 KLZK 290539
TAFADF
TAF
KADF 290539Z 2906/3006 00000KT P6SM SKC
      TEMPO 2906/2910 3SM BR
     FM291000 00000KT 5SM BR SKC
      TEMPO 2910/2913 2SM BR
     FM291300 27004KT P6SM SKC
     FM291600 26006KT P6SM SCT050
     FM300000 27003KT P6SM SCT250=

USA.gov is the U.S. government's official web portal to all federal, state and local government web resources and services.